sensor_id;sensor_type;location;lat;lon;timestamp;P1;durP1;ratioP1;P2;durP2;ratioP2
64816;SDS011;53289;45.602;11.904;2022-08-19T00:02:13;11.82;;;3.53;;
64816;SDS011;53289;45.602;11.904;2022-08-19T00:04:39;11.18;;;3.38;;
64816;SDS011;53289;45.602;11.904;2022-08-19T00:07:05;6.10;;;2.85;;
64816;SDS011;53289;45.602;11.904;2022-08-19T00:09:31;6.95;;;2.70;;
64816;SDS011;53289;45.602;11.904;2022-08-19T00:11:58;8.75;;;3.00;;
64816;SDS011;53289;45.602;11.904;2022-08-19T00:14:26;11.73;;;3.63;;
64816;SDS011;53289;45.602;11.904;2022-08-19T00:16:52;9.93;;;3.28;;
64816;SDS011;53289;45.602;11.904;2022-08-19T00:19:19;10.35;;;3.47;;
64816;SDS011;53289;45.602;11.904;2022-08-19T00:21:46;9.00;;;3.35;;
64816;SDS011;53289;45.602;11.904;2022-08-19T00:24:13;8.27;;;3.13;;
64816;SDS011;53289;45.602;11.904;2022-08-19T00:26:41;10.48;;;3.22;;
64816;SDS011;53289;45.602;11.904;2022-08-19T00:29:11;7.38;;;3.13;;
64816;SDS011;53289;45.602;11.904;2022-08-19T00:31:39;10.05;;;3.13;;
64816;SDS011;53289;45.602;11.904;2022-08-19T00:34:08;8.57;;;3.53;;
64816;SDS011;53289;45.602;11.904;2022-08-19T00:36:34;14.05;;;4.00;;
64816;SDS011;53289;45.602;11.904;2022-08-19T00:39:00;10.38;;;3.90;;
64816;SDS011;53289;45.602;11.904;2022-08-19T00:41:27;13.07;;;3.90;;
64816;SDS011;53289;45.602;11.904;2022-08-19T00:43:57;11.23;;;4.18;;
64816;SDS011;53289;45.602;11.904;2022-08-19T00:46:30;12.13;;;4.00;;
64816;SDS011;53289;45.602;11.904;2022-08-19T00:48:58;15.57;;;4.40;;
64816;SDS011;53289;45.602;11.904;2022-08-19T00:51:28;10.85;;;4.30;;
64816;SDS011;53289;45.602;11.904;2022-08-19T00:53:58;10.00;;;3.70;;
64816;SDS011;53289;45.602;11.904;2022-08-19T00:56:26;10.40;;;4.00;;
64816;SDS011;53289;45.602;11.904;2022-08-19T00:58:54;10.43;;;3.83;;
64816;SDS011;53289;45.602;11.904;2022-08-19T01:01:21;15.68;;;5.60;;
64816;SDS011;53289;45.602;11.904;2022-08-19T01:03:47;12.77;;;4.63;;
64816;SDS011;53289;45.602;11.904;2022-08-19T01:06:13;12.63;;;3.70;;
64816;SDS011;53289;45.602;11.904;2022-08-19T01:08:39;17.23;;;5.40;;
64816;SDS011;53289;45.602;11.904;2022-08-19T01:11:05;13.75;;;4.53;;
64816;SDS011;53289;45.602;11.904;2022-08-19T01:13:33;11.55;;;4.45;;
64816;SDS011;53289;45.602;11.904;2022-08-19T01:16:05;11.13;;;4.43;;
64816;SDS011;53289;45.602;11.904;2022-08-19T01:18:38;12.00;;;4.87;;
64816;SDS011;53289;45.602;11.904;2022-08-19T01:21:20;12.82;;;4.88;;
64816;SDS011;53289;45.602;11.904;2022-08-19T01:23:47;14.48;;;5.45;;
64816;SDS011;53289;45.602;11.904;2022-08-19T01:26:15;15.73;;;5.03;;
64816;SDS011;53289;45.602;11.904;2022-08-19T01:28:44;12.43;;;4.88;;
64816;SDS011;53289;45.602;11.904;2022-08-19T01:31:13;14.85;;;4.80;;
64816;SDS011;53289;45.602;11.904;2022-08-19T01:33:43;11.00;;;3.90;;
64816;SDS011;53289;45.602;11.904;2022-08-19T01:36:14;15.88;;;5.20;;
64816;SDS011;53289;45.602;11.904;2022-08-19T01:38:52;15.98;;;5.13;;
64816;SDS011;53289;45.602;11.904;2022-08-19T01:41:19;12.68;;;4.60;;
64816;SDS011;53289;45.602;11.904;2022-08-19T01:43:45;13.25;;;4.95;;
64816;SDS011;53289;45.602;11.904;2022-08-19T01:46:11;12.27;;;5.05;;
64816;SDS011;53289;45.602;11.904;2022-08-19T01:48:38;17.92;;;5.22;;
64816;SDS011;53289;45.602;11.904;2022-08-19T01:51:06;15.13;;;5.30;;
64816;SDS011;53289;45.602;11.904;2022-08-19T01:53:33;13.63;;;5.00;;
64816;SDS011;53289;45.602;11.904;2022-08-19T01:56:00;12.20;;;4.68;;
64816;SDS011;53289;45.602;11.904;2022-08-19T01:58:29;18.73;;;5.30;;
64816;SDS011;53289;45.602;11.904;2022-08-19T02:01:02;14.48;;;4.90;;
64816;SDS011;53289;45.602;11.904;2022-08-19T02:03:29;16.70;;;5.07;;
64816;SDS011;53289;45.602;11.904;2022-08-19T02:05:58;11.18;;;5.22;;
64816;SDS011;53289;45.602;11.904;2022-08-19T02:08:28;14.02;;;5.53;;
64816;SDS011;53289;45.602;11.904;2022-08-19T02:10:55;12.43;;;5.32;;
64816;SDS011;53289;45.602;11.904;2022-08-19T02:13:22;10.93;;;4.43;;
64816;SDS011;53289;45.602;11.904;2022-08-19T02:15:48;14.50;;;4.97;;
64816;SDS011;53289;45.602;11.904;2022-08-19T02:18:14;14.80;;;4.60;;
64816;SDS011;53289;45.602;11.904;2022-08-19T02:20:41;11.00;;;4.72;;
64816;SDS011;53289;45.602;11.904;2022-08-19T02:23:10;10.90;;;3.95;;
64816;SDS011;53289;45.602;11.904;2022-08-19T02:25:37;12.75;;;3.75;;
64816;SDS011;53289;45.602;11.904;2022-08-19T02:28:04;11.63;;;4.13;;
64816;SDS011;53289;45.602;11.904;2022-08-19T02:30:30;14.57;;;4.70;;
64816;SDS011;53289;45.602;11.904;2022-08-19T02:32:57;13.65;;;4.13;;
64816;SDS011;53289;45.602;11.904;2022-08-19T02:35:23;11.73;;;3.97;;
64816;SDS011;53289;45.602;11.904;2022-08-19T02:37:49;10.23;;;4.10;;
64816;SDS011;53289;45.602;11.904;2022-08-19T02:40:34;11.60;;;3.97;;
64816;SDS011;53289;45.602;11.904;2022-08-19T02:43:01;10.38;;;3.88;;
64816;SDS011;53289;45.602;11.904;2022-08-19T02:45:32;9.63;;;3.58;;
64816;SDS011;53289;45.602;11.904;2022-08-19T02:47:59;12.18;;;3.95;;
64816;SDS011;53289;45.602;11.904;2022-08-19T02:50:26;7.72;;;3.78;;
64816;SDS011;53289;45.602;11.904;2022-08-19T02:52:52;6.53;;;3.38;;
64816;SDS011;53289;45.602;11.904;2022-08-19T02:55:18;10.82;;;3.63;;
64816;SDS011;53289;45.602;11.904;2022-08-19T02:57:46;11.93;;;3.88;;
64816;SDS011;53289;45.602;11.904;2022-08-19T03:00:13;10.32;;;3.65;;
64816;SDS011;53289;45.602;11.904;2022-08-19T03:02:40;9.98;;;3.67;;
64816;SDS011;53289;45.602;11.904;2022-08-19T03:05:07;7.72;;;3.50;;
64816;SDS011;53289;45.602;11.904;2022-08-19T03:07:40;7.72;;;3.58;;
64816;SDS011;53289;45.602;11.904;2022-08-19T03:10:06;10.30;;;3.65;;
64816;SDS011;53289;45.602;11.904;2022-08-19T03:12:35;6.85;;;3.10;;
64816;SDS011;53289;45.602;11.904;2022-08-19T03:15:03;9.93;;;3.10;;
64816;SDS011;53289;45.602;11.904;2022-08-19T03:17:31;9.65;;;3.20;;
64816;SDS011;53289;45.602;11.904;2022-08-19T03:19:57;6.60;;;2.95;;
64816;SDS011;53289;45.602;11.904;2022-08-19T03:22:23;9.10;;;3.05;;
64816;SDS011;53289;45.602;11.904;2022-08-19T03:24:50;7.82;;;3.00;;
64816;SDS011;53289;45.602;11.904;2022-08-19T03:27:16;7.38;;;3.40;;
64816;SDS011;53289;45.602;11.904;2022-08-19T03:29:42;10.30;;;3.70;;
64816;SDS011;53289;45.602;11.904;2022-08-19T03:32:10;6.07;;;3.10;;
64816;SDS011;53289;45.602;11.904;2022-08-19T03:34:37;5.15;;;2.60;;
64816;SDS011;53289;45.602;11.904;2022-08-19T03:37:05;7.30;;;2.92;;
64816;SDS011;53289;45.602;11.904;2022-08-19T03:39:33;6.32;;;2.83;;
64816;SDS011;53289;45.602;11.904;2022-08-19T03:42:02;8.80;;;3.17;;
64816;SDS011;53289;45.602;11.904;2022-08-19T03:44:29;3.13;;;2.17;;
64816;SDS011;53289;45.602;11.904;2022-08-19T03:46:58;7.15;;;2.30;;
64816;SDS011;53289;45.602;11.904;2022-08-19T03:49:26;6.10;;;3.00;;
64816;SDS011;53289;45.602;11.904;2022-08-19T03:51:55;7.97;;;3.03;;
64816;SDS011;53289;45.602;11.904;2022-08-19T03:54:26;7.03;;;2.78;;
64816;SDS011;53289;45.602;11.904;2022-08-19T03:56:53;6.38;;;2.70;;
64816;SDS011;53289;45.602;11.904;2022-08-19T03:59:23;8.23;;;2.97;;
64816;SDS011;53289;45.602;11.904;2022-08-19T04:01:55;5.50;;;2.55;;
64816;SDS011;53289;45.602;11.904;2022-08-19T04:04:23;6.65;;;2.67;;
64816;SDS011;53289;45.602;11.904;2022-08-19T04:06:50;5.60;;;2.25;;
64816;SDS011;53289;45.602;11.904;2022-08-19T04:09:16;6.15;;;2.60;;
64816;SDS011;53289;45.602;11.904;2022-08-19T04:11:45;4.07;;;2.60;;
64816;SDS011;53289;45.602;11.904;2022-08-19T04:14:15;8.15;;;2.80;;
64816;SDS011;53289;45.602;11.904;2022-08-19T04:16:44;5.10;;;2.72;;
64816;SDS011;53289;45.602;11.904;2022-08-19T04:19:12;5.70;;;2.45;;
64816;SDS011;53289;45.602;11.904;2022-08-19T04:21:39;5.45;;;2.50;;
64816;SDS011;53289;45.602;11.904;2022-08-19T04:24:05;4.30;;;2.45;;
64816;SDS011;53289;45.602;11.904;2022-08-19T04:26:33;4.57;;;2.30;;
64816;SDS011;53289;45.602;11.904;2022-08-19T04:29:05;6.40;;;2.58;;
64816;SDS011;53289;45.602;11.904;2022-08-19T04:31:33;6.97;;;2.58;;
64816;SDS011;53289;45.602;11.904;2022-08-19T04:34:01;4.97;;;2.40;;
64816;SDS011;53289;45.602;11.904;2022-08-19T04:36:30;4.45;;;2.28;;
64816;SDS011;53289;45.602;11.904;2022-08-19T04:38:59;8.10;;;3.20;;
64816;SDS011;53289;45.602;11.904;2022-08-19T04:41:29;6.45;;;3.20;;
64816;SDS011;53289;45.602;11.904;2022-08-19T04:44:14;6.57;;;2.95;;
64816;SDS011;53289;45.602;11.904;2022-08-19T04:46:43;6.63;;;2.78;;
64816;SDS011;53289;45.602;11.904;2022-08-19T04:49:10;8.73;;;2.92;;
64816;SDS011;53289;45.602;11.904;2022-08-19T04:51:36;12.98;;;3.50;;
64816;SDS011;53289;45.602;11.904;2022-08-19T04:54:05;5.72;;;2.92;;
64816;SDS011;53289;45.602;11.904;2022-08-19T04:56:31;8.32;;;2.97;;
64816;SDS011;53289;45.602;11.904;2022-08-19T04:58:57;11.82;;;3.42;;
64816;SDS011;53289;45.602;11.904;2022-08-19T05:01:24;9.02;;;3.03;;
64816;SDS011;53289;45.602;11.904;2022-08-19T05:03:53;9.63;;;3.25;;
64816;SDS011;53289;45.602;11.904;2022-08-19T05:06:21;9.07;;;3.22;;
64816;SDS011;53289;45.602;11.904;2022-08-19T05:08:49;7.18;;;3.13;;
64816;SDS011;53289;45.602;11.904;2022-08-19T05:11:19;5.15;;;3.25;;
64816;SDS011;53289;45.602;11.904;2022-08-19T05:13:47;7.68;;;3.20;;
64816;SDS011;53289;45.602;11.904;2022-08-19T05:16:14;7.32;;;2.50;;
64816;SDS011;53289;45.602;11.904;2022-08-19T05:18:42;5.35;;;2.50;;
64816;SDS011;53289;45.602;11.904;2022-08-19T05:21:27;5.82;;;2.20;;
64816;SDS011;53289;45.602;11.904;2022-08-19T05:24:13;4.90;;;2.42;;
64816;SDS011;53289;45.602;11.904;2022-08-19T05:26:40;6.05;;;2.33;;
64816;SDS011;53289;45.602;11.904;2022-08-19T05:29:08;9.18;;;2.80;;
64816;SDS011;53289;45.602;11.904;2022-08-19T05:31:35;5.22;;;2.55;;
64816;SDS011;53289;45.602;11.904;2022-08-19T05:34:04;6.00;;;2.80;;
64816;SDS011;53289;45.602;11.904;2022-08-19T05:36:35;7.32;;;2.67;;
64816;SDS011;53289;45.602;11.904;2022-08-19T05:39:05;7.68;;;2.35;;
64816;SDS011;53289;45.602;11.904;2022-08-19T05:41:34;6.47;;;2.45;;
64816;SDS011;53289;45.602;11.904;2022-08-19T05:44:01;6.43;;;2.47;;
64816;SDS011;53289;45.602;11.904;2022-08-19T05:46:31;6.53;;;2.30;;
64816;SDS011;53289;45.602;11.904;2022-08-19T05:48:58;4.97;;;2.08;;
64816;SDS011;53289;45.602;11.904;2022-08-19T05:51:24;5.85;;;2.30;;
64816;SDS011;53289;45.602;11.904;2022-08-19T05:53:50;4.07;;;1.85;;
64816;SDS011;53289;45.602;11.904;2022-08-19T05:56:17;5.85;;;2.10;;
64816;SDS011;53289;45.602;11.904;2022-08-19T05:58:44;6.85;;;2.35;;
64816;SDS011;53289;45.602;11.904;2022-08-19T06:01:12;4.63;;;1.92;;
64816;SDS011;53289;45.602;11.904;2022-08-19T06:03:41;7.03;;;2.20;;
64816;SDS011;53289;45.602;11.904;2022-08-19T06:06:08;4.13;;;2.00;;
64816;SDS011;53289;45.602;11.904;2022-08-19T06:08:37;5.60;;;1.98;;
64816;SDS011;53289;45.602;11.904;2022-08-19T06:11:14;6.72;;;1.80;;
64816;SDS011;53289;45.602;11.904;2022-08-19T06:13:47;3.63;;;1.60;;
64816;SDS011;53289;45.602;11.904;2022-08-19T06:16:20;3.50;;;1.80;;
64816;SDS011;53289;45.602;11.904;2022-08-19T06:18:56;5.65;;;1.90;;
64816;SDS011;53289;45.602;11.904;2022-08-19T06:21:26;3.67;;;1.50;;
64816;SDS011;53289;45.602;11.904;2022-08-19T06:23:54;6.22;;;1.98;;
64816;SDS011;53289;45.602;11.904;2022-08-19T06:26:22;6.93;;;1.98;;
64816;SDS011;53289;45.602;11.904;2022-08-19T06:28:49;5.03;;;3.03;;
64816;SDS011;53289;45.602;11.904;2022-08-19T06:31:17;7.03;;;4.40;;
64816;SDS011;53289;45.602;11.904;2022-08-19T06:33:46;6.30;;;3.58;;
64816;SDS011;53289;45.602;11.904;2022-08-19T06:36:17;4.80;;;2.90;;
64816;SDS011;53289;45.602;11.904;2022-08-19T06:38:52;5.85;;;2.60;;
64816;SDS011;53289;45.602;11.904;2022-08-19T06:41:19;4.57;;;2.22;;
64816;SDS011;53289;45.602;11.904;2022-08-19T06:43:45;8.05;;;2.10;;
64816;SDS011;53289;45.602;11.904;2022-08-19T06:46:15;3.83;;;1.60;;
64816;SDS011;53289;45.602;11.904;2022-08-19T06:48:44;4.72;;;1.80;;
64816;SDS011;53289;45.602;11.904;2022-08-19T06:51:10;6.38;;;1.88;;
64816;SDS011;53289;45.602;11.904;2022-08-19T06:53:36;4.65;;;1.77;;
64816;SDS011;53289;45.602;11.904;2022-08-19T06:56:04;4.35;;;1.80;;
64816;SDS011;53289;45.602;11.904;2022-08-19T06:58:30;3.63;;;1.70;;
64816;SDS011;53289;45.602;11.904;2022-08-19T07:01:01;4.13;;;1.52;;
64816;SDS011;53289;45.602;11.904;2022-08-19T07:03:29;3.17;;;1.65;;
64816;SDS011;53289;45.602;11.904;2022-08-19T07:06:02;5.45;;;1.80;;
64816;SDS011;53289;45.602;11.904;2022-08-19T07:08:36;3.58;;;1.80;;
64816;SDS011;53289;45.602;11.904;2022-08-19T07:11:06;4.00;;;1.50;;
64816;SDS011;53289;45.602;11.904;2022-08-19T07:13:35;3.08;;;1.42;;
64816;SDS011;53289;45.602;11.904;2022-08-19T07:16:12;4.10;;;1.70;;
64816;SDS011;53289;45.602;11.904;2022-08-19T07:18:41;3.53;;;1.52;;
64816;SDS011;53289;45.602;11.904;2022-08-19T07:21:08;4.28;;;1.80;;
64816;SDS011;53289;45.602;11.904;2022-08-19T07:23:36;3.25;;;1.52;;
64816;SDS011;53289;45.602;11.904;2022-08-19T07:26:07;5.45;;;1.80;;
64816;SDS011;53289;45.602;11.904;2022-08-19T07:28:35;5.13;;;2.40;;
64816;SDS011;53289;45.602;11.904;2022-08-19T07:31:07;6.00;;;2.08;;
64816;SDS011;53289;45.602;11.904;2022-08-19T07:33:35;6.45;;;2.28;;
64816;SDS011;53289;45.602;11.904;2022-08-19T07:36:05;3.35;;;1.83;;
64816;SDS011;53289;45.602;11.904;2022-08-19T07:38:37;3.20;;;1.80;;
64816;SDS011;53289;45.602;11.904;2022-08-19T07:41:04;2.38;;;1.63;;
64816;SDS011;53289;45.602;11.904;2022-08-19T07:43:31;3.35;;;2.20;;
64816;SDS011;53289;45.602;11.904;2022-08-19T07:45:58;6.22;;;2.50;;
64816;SDS011;53289;45.602;11.904;2022-08-19T07:48:24;4.43;;;2.15;;
64816;SDS011;53289;45.602;11.904;2022-08-19T07:50:57;5.93;;;2.38;;
64816;SDS011;53289;45.602;11.904;2022-08-19T07:53:28;5.10;;;2.55;;
64816;SDS011;53289;45.602;11.904;2022-08-19T07:55:56;5.05;;;2.25;;
64816;SDS011;53289;45.602;11.904;2022-08-19T07:58:32;3.83;;;2.03;;
64816;SDS011;53289;45.602;11.904;2022-08-19T08:01:01;3.95;;;1.98;;
64816;SDS011;53289;45.602;11.904;2022-08-19T08:03:29;4.47;;;2.10;;
64816;SDS011;53289;45.602;11.904;2022-08-19T08:06:14;8.98;;;3.20;;
64816;SDS011;53289;45.602;11.904;2022-08-19T08:08:59;5.15;;;2.58;;
64816;SDS011;53289;45.602;11.904;2022-08-19T08:11:41;7.07;;;2.60;;
64816;SDS011;53289;45.602;11.904;2022-08-19T08:14:15;6.63;;;2.80;;
64816;SDS011;53289;45.602;11.904;2022-08-19T08:16:49;3.22;;;2.20;;
64816;SDS011;53289;45.602;11.904;2022-08-19T08:19:19;7.10;;;2.53;;
64816;SDS011;53289;45.602;11.904;2022-08-19T08:21:48;6.88;;;2.60;;
64816;SDS011;53289;45.602;11.904;2022-08-19T08:24:15;7.85;;;3.00;;
64816;SDS011;53289;45.602;11.904;2022-08-19T08:26:43;5.68;;;3.42;;
64816;SDS011;53289;45.602;11.904;2022-08-19T08:29:10;6.22;;;3.05;;
64816;SDS011;53289;45.602;11.904;2022-08-19T08:31:42;7.55;;;3.70;;
64816;SDS011;53289;45.602;11.904;2022-08-19T08:34:10;9.77;;;4.75;;
64816;SDS011;53289;45.602;11.904;2022-08-19T08:36:38;12.05;;;5.63;;
64816;SDS011;53289;45.602;11.904;2022-08-19T08:39:07;11.70;;;4.55;;
64816;SDS011;53289;45.602;11.904;2022-08-19T08:42:04;8.88;;;4.68;;
64816;SDS011;53289;45.602;11.904;2022-08-19T08:47:23;7.93;;;3.45;;
64816;SDS011;53289;45.602;11.904;2022-08-19T08:49:56;6.93;;;2.78;;
64816;SDS011;53289;45.602;11.904;2022-08-19T08:52:29;6.85;;;2.53;;
64816;SDS011;53289;45.602;11.904;2022-08-19T08:55:03;4.90;;;2.05;;
64816;SDS011;53289;45.602;11.904;2022-08-19T09:00:07;9.38;;;2.72;;
64816;SDS011;53289;45.602;11.904;2022-08-19T09:02:37;5.03;;;2.60;;
64816;SDS011;53289;45.602;11.904;2022-08-19T09:05:04;4.22;;;2.05;;
64816;SDS011;53289;45.602;11.904;2022-08-19T09:10:17;8.73;;;2.20;;
64816;SDS011;53289;45.602;11.904;2022-08-19T09:15:32;9.25;;;2.17;;
64816;SDS011;53289;45.602;11.904;2022-08-19T09:18:04;5.47;;;2.20;;
64816;SDS011;53289;45.602;11.904;2022-08-19T09:20:31;4.22;;;2.00;;
64816;SDS011;53289;45.602;11.904;2022-08-19T09:22:58;8.20;;;2.63;;
64816;SDS011;53289;45.602;11.904;2022-08-19T09:25:25;5.78;;;2.08;;
64816;SDS011;53289;45.602;11.904;2022-08-19T09:27:52;5.28;;;2.03;;
64816;SDS011;53289;45.602;11.904;2022-08-19T09:30:21;3.63;;;1.83;;
64816;SDS011;53289;45.602;11.904;2022-08-19T09:32:50;8.30;;;2.13;;
64816;SDS011;53289;45.602;11.904;2022-08-19T09:35:23;5.30;;;1.95;;
64816;SDS011;53289;45.602;11.904;2022-08-19T09:37:52;4.15;;;2.00;;
64816;SDS011;53289;45.602;11.904;2022-08-19T09:40:18;7.90;;;2.15;;
64816;SDS011;53289;45.602;11.904;2022-08-19T09:42:45;6.28;;;2.20;;
64816;SDS011;53289;45.602;11.904;2022-08-19T09:45:13;6.82;;;2.35;;
64816;SDS011;53289;45.602;11.904;2022-08-19T09:47:41;4.63;;;2.20;;
64816;SDS011;53289;45.602;11.904;2022-08-19T09:50:09;5.05;;;2.05;;
64816;SDS011;53289;45.602;11.904;2022-08-19T09:52:36;5.80;;;2.30;;
64816;SDS011;53289;45.602;11.904;2022-08-19T09:55:04;5.75;;;2.10;;
64816;SDS011;53289;45.602;11.904;2022-08-19T09:57:32;6.57;;;2.20;;
64816;SDS011;53289;45.602;11.904;2022-08-19T09:59:58;6.65;;;2.70;;
64816;SDS011;53289;45.602;11.904;2022-08-19T10:02:25;6.82;;;4.70;;
64816;SDS011;53289;45.602;11.904;2022-08-19T10:04:51;6.88;;;2.60;;
64816;SDS011;53289;45.602;11.904;2022-08-19T10:07:36;6.15;;;2.30;;
64816;SDS011;53289;45.602;11.904;2022-08-19T10:10:04;7.57;;;2.45;;
64816;SDS011;53289;45.602;11.904;2022-08-19T10:12:32;4.75;;;2.15;;
64816;SDS011;53289;45.602;11.904;2022-08-19T10:14:59;7.18;;;2.25;;
64816;SDS011;53289;45.602;11.904;2022-08-19T10:17:26;3.63;;;1.90;;
64816;SDS011;53289;45.602;11.904;2022-08-19T10:19:52;6.05;;;1.80;;
64816;SDS011;53289;45.602;11.904;2022-08-19T10:22:18;7.03;;;1.92;;
64816;SDS011;53289;45.602;11.904;2022-08-19T10:24:47;5.43;;;1.73;;
64816;SDS011;53289;45.602;11.904;2022-08-19T10:27:14;4.57;;;1.88;;
64816;SDS011;53289;45.602;11.904;2022-08-19T10:29:40;4.88;;;1.77;;
64816;SDS011;53289;45.602;11.904;2022-08-19T10:32:07;4.53;;;1.90;;
64816;SDS011;53289;45.602;11.904;2022-08-19T10:34:35;4.13;;;1.80;;
64816;SDS011;53289;45.602;11.904;2022-08-19T10:37:03;4.28;;;1.50;;
64816;SDS011;53289;45.602;11.904;2022-08-19T10:39:32;6.72;;;1.70;;
64816;SDS011;53289;45.602;11.904;2022-08-19T10:42:04;5.55;;;2.10;;
64816;SDS011;53289;45.602;11.904;2022-08-19T10:44:35;7.05;;;1.75;;
64816;SDS011;53289;45.602;11.904;2022-08-19T10:47:02;3.25;;;1.52;;
64816;SDS011;53289;45.602;11.904;2022-08-19T10:49:29;3.50;;;1.70;;
64816;SDS011;53289;45.602;11.904;2022-08-19T10:51:56;7.22;;;2.15;;
64816;SDS011;53289;45.602;11.904;2022-08-19T10:54:41;3.55;;;1.58;;
64816;SDS011;53289;45.602;11.904;2022-08-19T10:57:30;2.83;;;1.30;;
64816;SDS011;53289;45.602;11.904;2022-08-19T10:59:56;2.80;;;1.23;;
64816;SDS011;53289;45.602;11.904;2022-08-19T11:02:22;3.20;;;1.40;;
64816;SDS011;53289;45.602;11.904;2022-08-19T11:04:48;2.78;;;1.33;;
64816;SDS011;53289;45.602;11.904;2022-08-19T11:07:17;2.60;;;1.55;;
64816;SDS011;53289;45.602;11.904;2022-08-19T11:09:43;3.97;;;1.48;;
64816;SDS011;53289;45.602;11.904;2022-08-19T11:12:09;3.10;;;1.40;;
64816;SDS011;53289;45.602;11.904;2022-08-19T11:14:35;4.57;;;1.50;;
64816;SDS011;53289;45.602;11.904;2022-08-19T11:17:03;2.90;;;1.33;;
64816;SDS011;53289;45.602;11.904;2022-08-19T11:19:30;5.28;;;1.63;;
64816;SDS011;53289;45.602;11.904;2022-08-19T11:21:57;1.98;;;1.13;;
64816;SDS011;53289;45.602;11.904;2022-08-19T11:24:26;3.95;;;1.50;;
64816;SDS011;53289;45.602;11.904;2022-08-19T11:26:53;4.95;;;1.42;;
64816;SDS011;53289;45.602;11.904;2022-08-19T11:29:28;3.40;;;1.45;;
64816;SDS011;53289;45.602;11.904;2022-08-19T11:31:54;1.70;;;1.30;;
64816;SDS011;53289;45.602;11.904;2022-08-19T11:34:21;5.68;;;1.77;;
64816;SDS011;53289;45.602;11.904;2022-08-19T11:36:50;3.63;;;1.60;;
64816;SDS011;53289;45.602;11.904;2022-08-19T11:39:18;3.20;;;1.20;;
64816;SDS011;53289;45.602;11.904;2022-08-19T11:41:46;4.28;;;1.48;;
64816;SDS011;53289;45.602;11.904;2022-08-19T11:44:12;3.75;;;1.52;;
64816;SDS011;53289;45.602;11.904;2022-08-19T11:46:40;3.75;;;1.67;;
64816;SDS011;53289;45.602;11.904;2022-08-19T11:49:10;5.65;;;1.75;;
64816;SDS011;53289;45.602;11.904;2022-08-19T11:51:37;5.43;;;1.90;;
64816;SDS011;53289;45.602;11.904;2022-08-19T11:54:05;3.83;;;1.30;;
64816;SDS011;53289;45.602;11.904;2022-08-19T11:56:32;2.05;;;1.15;;
64816;SDS011;53289;45.602;11.904;2022-08-19T11:58:58;3.10;;;1.50;;
64816;SDS011;53289;45.602;11.904;2022-08-19T12:01:26;2.92;;;1.25;;
64816;SDS011;53289;45.602;11.904;2022-08-19T12:03:53;5.72;;;1.80;;
64816;SDS011;53289;45.602;11.904;2022-08-19T12:06:21;3.22;;;1.40;;
64816;SDS011;53289;45.602;11.904;2022-08-19T12:08:50;3.92;;;1.65;;
64816;SDS011;53289;45.602;11.904;2022-08-19T12:11:16;2.15;;;1.50;;
64816;SDS011;53289;45.602;11.904;2022-08-19T12:13:43;2.45;;;1.40;;
64816;SDS011;53289;45.602;11.904;2022-08-19T12:16:14;5.10;;;1.30;;
64816;SDS011;53289;45.602;11.904;2022-08-19T12:18:43;3.15;;;1.33;;
64816;SDS011;53289;45.602;11.904;2022-08-19T12:21:15;5.15;;;1.55;;
64816;SDS011;53289;45.602;11.904;2022-08-19T12:23:46;6.35;;;1.70;;
64816;SDS011;53289;45.602;11.904;2022-08-19T12:26:14;4.82;;;2.13;;
64816;SDS011;53289;45.602;11.904;2022-08-19T12:28:40;5.78;;;1.60;;
64816;SDS011;53289;45.602;11.904;2022-08-19T12:31:06;2.75;;;1.40;;
64816;SDS011;53289;45.602;11.904;2022-08-19T12:33:34;5.43;;;1.92;;
64816;SDS011;53289;45.602;11.904;2022-08-19T12:36:01;7.03;;;1.92;;
64816;SDS011;53289;45.602;11.904;2022-08-19T12:38:30;2.83;;;1.52;;
64816;SDS011;53289;45.602;11.904;2022-08-19T12:40:58;4.97;;;1.48;;
64816;SDS011;53289;45.602;11.904;2022-08-19T12:43:24;3.85;;;1.40;;
64816;SDS011;53289;45.602;11.904;2022-08-19T12:45:50;3.80;;;1.45;;
64816;SDS011;53289;45.602;11.904;2022-08-19T12:48:16;4.80;;;1.63;;
64816;SDS011;53289;45.602;11.904;2022-08-19T12:50:43;3.90;;;1.42;;
64816;SDS011;53289;45.602;11.904;2022-08-19T12:53:11;5.22;;;2.08;;
64816;SDS011;53289;45.602;11.904;2022-08-19T12:55:37;3.40;;;1.27;;
64816;SDS011;53289;45.602;11.904;2022-08-19T12:58:03;6.50;;;1.55;;
64816;SDS011;53289;45.602;11.904;2022-08-19T13:00:29;2.67;;;1.42;;
64816;SDS011;53289;45.602;11.904;2022-08-19T13:02:58;3.08;;;1.13;;
64816;SDS011;53289;45.602;11.904;2022-08-19T13:05:29;5.10;;;1.20;;
64816;SDS011;53289;45.602;11.904;2022-08-19T13:07:57;3.08;;;1.40;;
64816;SDS011;53289;45.602;11.904;2022-08-19T13:10:31;4.05;;;1.75;;
64816;SDS011;53289;45.602;11.904;2022-08-19T13:13:00;3.08;;;1.30;;
64816;SDS011;53289;45.602;11.904;2022-08-19T13:15:28;2.33;;;1.35;;
64816;SDS011;53289;45.602;11.904;2022-08-19T13:17:58;3.10;;;1.15;;
64816;SDS011;53289;45.602;11.904;2022-08-19T13:20:24;3.40;;;1.33;;
64816;SDS011;53289;45.602;11.904;2022-08-19T13:22:50;2.38;;;1.15;;
64816;SDS011;53289;45.602;11.904;2022-08-19T13:25:16;3.30;;;1.35;;
64816;SDS011;53289;45.602;11.904;2022-08-19T13:27:45;2.95;;;1.42;;
64816;SDS011;53289;45.602;11.904;2022-08-19T13:30:13;5.70;;;1.85;;
64816;SDS011;53289;45.602;11.904;2022-08-19T13:32:58;2.88;;;1.35;;
64816;SDS011;53289;45.602;11.904;2022-08-19T13:35:37;4.82;;;1.52;;
64816;SDS011;53289;45.602;11.904;2022-08-19T13:38:04;2.50;;;1.30;;
64816;SDS011;53289;45.602;11.904;2022-08-19T13:40:30;3.45;;;1.42;;
64816;SDS011;53289;45.602;11.904;2022-08-19T13:42:58;3.65;;;1.40;;
64816;SDS011;53289;45.602;11.904;2022-08-19T13:45:26;3.72;;;1.50;;
64816;SDS011;53289;45.602;11.904;2022-08-19T13:47:55;4.60;;;1.25;;
64816;SDS011;53289;45.602;11.904;2022-08-19T13:50:24;3.03;;;1.33;;
64816;SDS011;53289;45.602;11.904;2022-08-19T13:52:52;3.30;;;1.50;;
64816;SDS011;53289;45.602;11.904;2022-08-19T13:55:19;2.78;;;1.48;;
64816;SDS011;53289;45.602;11.904;2022-08-19T13:57:50;4.03;;;1.50;;
64816;SDS011;53289;45.602;11.904;2022-08-19T14:00:18;5.30;;;1.60;;
64816;SDS011;53289;45.602;11.904;2022-08-19T14:02:47;4.28;;;1.55;;
64816;SDS011;53289;45.602;11.904;2022-08-19T14:05:17;4.53;;;1.40;;
64816;SDS011;53289;45.602;11.904;2022-08-19T14:07:44;4.35;;;1.33;;
64816;SDS011;53289;45.602;11.904;2022-08-19T14:10:11;4.10;;;1.30;;
64816;SDS011;53289;45.602;11.904;2022-08-19T14:12:38;4.63;;;2.03;;
64816;SDS011;53289;45.602;11.904;2022-08-19T14:15:06;4.57;;;2.10;;
64816;SDS011;53289;45.602;11.904;2022-08-19T14:17:34;3.55;;;1.33;;
64816;SDS011;53289;45.602;11.904;2022-08-19T14:20:03;7.00;;;1.63;;
64816;SDS011;53289;45.602;11.904;2022-08-19T14:22:37;3.90;;;1.40;;
64816;SDS011;53289;45.602;11.904;2022-08-19T14:25:07;5.05;;;1.70;;
64816;SDS011;53289;45.602;11.904;2022-08-19T14:27:35;4.65;;;2.00;;
64816;SDS011;53289;45.602;11.904;2022-08-19T14:30:03;3.13;;;1.50;;
64816;SDS011;53289;45.602;11.904;2022-08-19T14:32:35;3.87;;;1.57;;
64816;SDS011;53289;45.602;11.904;2022-08-19T14:35:01;4.05;;;1.50;;
64816;SDS011;53289;45.602;11.904;2022-08-19T14:37:28;4.90;;;1.25;;
64816;SDS011;53289;45.602;11.904;2022-08-19T14:39:54;2.75;;;1.38;;
64816;SDS011;53289;45.602;11.904;2022-08-19T14:42:20;4.80;;;2.63;;
64816;SDS011;53289;45.602;11.904;2022-08-19T14:44:46;4.22;;;1.67;;
64816;SDS011;53289;45.602;11.904;2022-08-19T14:47:12;7.03;;;1.90;;
64816;SDS011;53289;45.602;11.904;2022-08-19T14:49:39;2.92;;;1.08;;
64816;SDS011;53289;45.602;11.904;2022-08-19T14:52:05;3.83;;;1.40;;